TimeMST,TemperatureF,Dew PointF,Humidity,Sea Level PressureIn,VisibilityMPH,Wind Direction,Wind SpeedMPH,Gust SpeedMPH,PrecipitationIn,Events,Conditions,WindDirDegrees,DateUTC
12:15 AM,23.0,17.6,80,30.11,10.0,East,4.6,-,N/A,,Unknown,100,2013-02-14 07:15:00
12:35 AM,23.0,17.6,80,30.10,10.0,East,3.5,-,N/A,,Unknown,100,2013-02-14 07:35:00
12:55 AM,23.0,17.6,80,30.10,10.0,SE,3.5,-,N/A,,Unknown,140,2013-02-14 07:55:00
1:15 AM,21.2,17.6,86,30.10,10.0,East,4.6,-,N/A,,Unknown,100,2013-02-14 08:15:00
1:35 AM,21.2,17.6,86,30.10,10.0,ESE,5.8,-,N/A,,Unknown,110,2013-02-14 08:35:00
1:55 AM,21.2,17.6,86,30.09,10.0,East,5.8,-,N/A,,Unknown,100,2013-02-14 08:55:00
2:15 AM,21.2,17.6,86,30.09,10.0,East,4.6,-,N/A,,Unknown,100,2013-02-14 09:15:00
2:35 AM,21.2,17.6,86,30.08,10.0,East,6.9,-,N/A,,Unknown,100,2013-02-14 09:35:00
3:15 AM,21.2,17.6,86,30.08,10.0,East,3.5,-,N/A,,Unknown,100,2013-02-14 10:15:00
3:35 AM,21.2,17.6,86,30.07,10.0,ESE,3.5,-,N/A,,Unknown,110,2013-02-14 10:35:00
3:55 AM,21.2,17.6,86,30.07,10.0,Calm,Calm,-,N/A,,Unknown,0,2013-02-14 10:55:00
4:15 AM,21.2,17.6,86,30.07,10.0,Calm,Calm,-,N/A,,Unknown,0,2013-02-14 11:15:00
4:35 AM,21.2,17.6,86,30.08,10.0,Calm,Calm,-,N/A,,Unknown,0,2013-02-14 11:35:00
4:55 AM,21.2,19.4,93,30.08,10.0,SE,3.5,-,N/A,,Unknown,130,2013-02-14 11:55:00
5:15 AM,21.2,17.6,86,30.08,10.0,Calm,Calm,-,N/A,,Unknown,0,2013-02-14 12:15:00
5:35 AM,21.2,17.6,86,30.09,10.0,Calm,Calm,-,N/A,,Unknown,0,2013-02-14 12:35:00
5:55 AM,21.2,17.6,86,30.09,10.0,ENE,8.1,-,N/A,,Unknown,70,2013-02-14 12:55:00
6:35 AM,21.2,17.6,86,30.10,10.0,East,5.8,-,N/A,,Unknown,90,2013-02-14 13:35:00
6:50 AM,21.2,17.6,86,30.11,10.0,Calm,Calm,-,N/A,,Overcast,0,2013-02-14 13:50:00
7:55 AM,21.2,17.6,86,30.13,10.0,Calm,Calm,-,N/A,,Overcast,0,2013-02-14 14:55:00
11:50 AM,33.8,19.4,56,30.15,10.0,West,10.4,-,N/A,,Scattered Clouds,260,2013-02-14 18:50:00
12:50 PM,35.6,19.4,52,30.12,10.0,West,6.9,-,N/A,,Scattered Clouds,270,2013-02-14 19:50:00
1:50 PM,35.6,19.4,52,30.11,10.0,WSW,13.8,-,N/A,,Scattered Clouds,250,2013-02-14 20:50:00
2:53 PM,35.6,10.4,35,30.13,10.0,West,10.4,-,N/A,,Mostly Cloudy,280,2013-02-14 21:53:00
3:56 PM,35.6,10.4,35,30.13,10.0,West,15.0,21.9,N/A,,Scattered Clouds,270,2013-02-14 22:56:00
4:50 PM,33.8,8.6,35,30.14,10.0,West,15.0,19.6,N/A,,Scattered Clouds,280,2013-02-14 23:50:00
5:50 PM,32.0,8.6,38,30.16,10.0,West,9.2,-,N/A,,Scattered Clouds,280,2013-02-15 00:50:00
6:50 PM,30.2,15.8,55,30.18,10.0,SW,6.9,-,N/A,,Scattered Clouds,220,2013-02-15 01:50:00
7:50 PM,26.6,15.8,64,30.19,10.0,ESE,3.5,-,N/A,,Scattered Clouds,110,2013-02-15 02:50:00
8:50 PM,26.6,14.0,59,30.18,10.0,East,5.8,-,N/A,,Scattered Clouds,80,2013-02-15 03:50:00
9:50 PM,28.4,17.6,64,30.19,10.0,SW,9.2,-,N/A,,Scattered Clouds,220,2013-02-15 04:50:00
10:50 PM,28.4,17.6,64,30.19,10.0,SW,8.1,-,N/A,,Scattered Clouds,220,2013-02-15 05:50:00
11:15 PM,28.4,17.6,64,30.20,10.0,WSW,3.5,-,N/A,,Unknown,240,2013-02-15 06:15:00
11:35 PM,28.4,17.6,64,30.21,10.0,WSW,11.5,-,N/A,,Unknown,240,2013-02-15 06:35:00